sensor_id;sensor_type;location;lat;lon;timestamp;P1;durP1;ratioP1;P2;durP2;ratioP2
8113;SDS011;4099;52.684;9.918;2023-02-08T00:04:23;40.93;;;20.60;;
8113;SDS011;4099;52.684;9.918;2023-02-08T00:09:31;41.67;;;21.37;;
8113;SDS011;4099;52.684;9.918;2023-02-08T00:14:39;42.80;;;21.27;;
8113;SDS011;4099;52.684;9.918;2023-02-08T00:19:46;43.20;;;21.37;;
8113;SDS011;4099;52.684;9.918;2023-02-08T00:24:49;40.70;;;21.47;;
8113;SDS011;4099;52.684;9.918;2023-02-08T00:29:56;42.23;;;21.77;;
8113;SDS011;4099;52.684;9.918;2023-02-08T00:35:05;47.03;;;22.03;;
8113;SDS011;4099;52.684;9.918;2023-02-08T00:40:11;42.23;;;21.40;;
8113;SDS011;4099;52.684;9.918;2023-02-08T00:45:21;42.63;;;21.40;;
8113;SDS011;4099;52.684;9.918;2023-02-08T00:50:27;41.77;;;21.10;;
8113;SDS011;4099;52.684;9.918;2023-02-08T00:55:41;45.27;;;22.20;;
8113;SDS011;4099;52.684;9.918;2023-02-08T01:00:46;50.73;;;23.27;;
8113;SDS011;4099;52.684;9.918;2023-02-08T01:05:53;46.60;;;21.90;;
8113;SDS011;4099;52.684;9.918;2023-02-08T01:11:08;50.80;;;22.27;;
8113;SDS011;4099;52.684;9.918;2023-02-08T01:16:19;51.40;;;23.97;;
8113;SDS011;4099;52.684;9.918;2023-02-08T01:21:27;46.83;;;22.53;;
8113;SDS011;4099;52.684;9.918;2023-02-08T01:26:38;51.00;;;23.07;;
8113;SDS011;4099;52.684;9.918;2023-02-08T01:31:42;49.73;;;22.90;;
8113;SDS011;4099;52.684;9.918;2023-02-08T01:36:48;52.50;;;23.37;;
8113;SDS011;4099;52.684;9.918;2023-02-08T01:41:55;58.40;;;25.40;;
8113;SDS011;4099;52.684;9.918;2023-02-08T01:47:08;48.97;;;24.00;;
8113;SDS011;4099;52.684;9.918;2023-02-08T01:52:16;55.50;;;23.97;;
8113;SDS011;4099;52.684;9.918;2023-02-08T01:57:24;53.30;;;23.60;;
8113;SDS011;4099;52.684;9.918;2023-02-08T02:02:28;48.77;;;24.10;;
8113;SDS011;4099;52.684;9.918;2023-02-08T02:07:33;56.37;;;26.20;;
8113;SDS011;4099;52.684;9.918;2023-02-08T02:12:40;51.57;;;24.33;;
8113;SDS011;4099;52.684;9.918;2023-02-08T02:17:45;56.10;;;26.53;;
8113;SDS011;4099;52.684;9.918;2023-02-08T02:29:01;58.17;;;26.73;;
8113;SDS011;4099;52.684;9.918;2023-02-08T02:34:23;60.17;;;26.13;;
8113;SDS011;4099;52.684;9.918;2023-02-08T02:39:34;61.87;;;25.60;;
8113;SDS011;4099;52.684;9.918;2023-02-08T02:44:51;56.60;;;25.53;;
8113;SDS011;4099;52.684;9.918;2023-02-08T02:50:05;62.40;;;27.53;;
8113;SDS011;4099;52.684;9.918;2023-02-08T02:55:17;61.73;;;27.67;;
8113;SDS011;4099;52.684;9.918;2023-02-08T03:00:25;59.50;;;26.90;;
8113;SDS011;4099;52.684;9.918;2023-02-08T03:05:32;55.70;;;25.83;;
8113;SDS011;4099;52.684;9.918;2023-02-08T03:16:17;64.80;;;27.00;;
8113;SDS011;4099;52.684;9.918;2023-02-08T03:21:39;56.87;;;26.70;;
8113;SDS011;4099;52.684;9.918;2023-02-08T03:26:52;62.47;;;26.33;;
8113;SDS011;4099;52.684;9.918;2023-02-08T03:32:01;61.90;;;28.20;;
8113;SDS011;4099;52.684;9.918;2023-02-08T03:37:12;59.57;;;27.40;;
8113;SDS011;4099;52.684;9.918;2023-02-08T03:42:23;56.33;;;26.20;;
8113;SDS011;4099;52.684;9.918;2023-02-08T03:47:29;65.43;;;28.30;;
8113;SDS011;4099;52.684;9.918;2023-02-08T03:52:37;55.43;;;26.13;;
8113;SDS011;4099;52.684;9.918;2023-02-08T03:57:42;56.83;;;26.73;;
8113;SDS011;4099;52.684;9.918;2023-02-08T04:02:54;64.60;;;28.33;;
8113;SDS011;4099;52.684;9.918;2023-02-08T04:08:05;59.47;;;26.90;;
8113;SDS011;4099;52.684;9.918;2023-02-08T04:13:08;58.07;;;27.20;;
8113;SDS011;4099;52.684;9.918;2023-02-08T04:18:12;69.73;;;28.63;;
8113;SDS011;4099;52.684;9.918;2023-02-08T04:23:17;60.30;;;26.47;;
8113;SDS011;4099;52.684;9.918;2023-02-08T04:28:20;57.60;;;26.20;;
8113;SDS011;4099;52.684;9.918;2023-02-08T04:33:27;58.10;;;26.70;;
8113;SDS011;4099;52.684;9.918;2023-02-08T04:38:35;60.07;;;27.23;;
8113;SDS011;4099;52.684;9.918;2023-02-08T04:43:39;72.33;;;28.80;;
8113;SDS011;4099;52.684;9.918;2023-02-08T04:48:42;59.50;;;26.10;;
8113;SDS011;4099;52.684;9.918;2023-02-08T04:53:54;55.57;;;26.47;;
8113;SDS011;4099;52.684;9.918;2023-02-08T04:59:04;56.13;;;26.23;;
8113;SDS011;4099;52.684;9.918;2023-02-08T05:04:20;57.23;;;25.50;;
8113;SDS011;4099;52.684;9.918;2023-02-08T05:09:40;63.47;;;26.33;;
8113;SDS011;4099;52.684;9.918;2023-02-08T05:14:47;63.50;;;27.60;;
8113;SDS011;4099;52.684;9.918;2023-02-08T05:19:53;55.20;;;24.03;;
8113;SDS011;4099;52.684;9.918;2023-02-08T05:24:59;59.03;;;25.37;;
8113;SDS011;4099;52.684;9.918;2023-02-08T05:30:09;56.43;;;25.97;;
8113;SDS011;4099;52.684;9.918;2023-02-08T05:35:27;57.20;;;26.43;;
8113;SDS011;4099;52.684;9.918;2023-02-08T05:41:17;66.73;;;26.77;;
8113;SDS011;4099;52.684;9.918;2023-02-08T05:46:29;63.43;;;27.20;;
8113;SDS011;4099;52.684;9.918;2023-02-08T05:52:11;72.63;;;27.20;;
8113;SDS011;4099;52.684;9.918;2023-02-08T05:57:20;63.87;;;28.87;;
8113;SDS011;4099;52.684;9.918;2023-02-08T06:02:25;63.43;;;27.90;;
8113;SDS011;4099;52.684;9.918;2023-02-08T06:12:57;61.07;;;26.90;;
8113;SDS011;4099;52.684;9.918;2023-02-08T06:18:20;63.63;;;27.00;;
8113;SDS011;4099;52.684;9.918;2023-02-08T06:23:29;66.10;;;26.67;;
8113;SDS011;4099;52.684;9.918;2023-02-08T06:28:36;66.90;;;28.20;;
8113;SDS011;4099;52.684;9.918;2023-02-08T06:33:44;63.80;;;27.37;;
8113;SDS011;4099;52.684;9.918;2023-02-08T06:44:19;65.47;;;26.43;;
8113;SDS011;4099;52.684;9.918;2023-02-08T06:49:29;67.43;;;29.00;;
8113;SDS011;4099;52.684;9.918;2023-02-08T06:54:42;69.47;;;27.83;;
8113;SDS011;4099;52.684;9.918;2023-02-08T06:59:48;67.07;;;29.70;;
8113;SDS011;4099;52.684;9.918;2023-02-08T07:04:53;63.57;;;29.73;;
8113;SDS011;4099;52.684;9.918;2023-02-08T07:10:03;71.17;;;30.00;;
8113;SDS011;4099;52.684;9.918;2023-02-08T07:15:17;73.77;;;30.07;;
8113;SDS011;4099;52.684;9.918;2023-02-08T07:20:21;83.33;;;32.30;;
8113;SDS011;4099;52.684;9.918;2023-02-08T07:25:56;78.27;;;33.37;;
8113;SDS011;4099;52.684;9.918;2023-02-08T07:31:06;81.67;;;32.57;;
8113;SDS011;4099;52.684;9.918;2023-02-08T07:36:24;79.33;;;33.87;;
8113;SDS011;4099;52.684;9.918;2023-02-08T07:41:32;68.03;;;31.63;;
8113;SDS011;4099;52.684;9.918;2023-02-08T07:46:41;83.80;;;34.17;;
8113;SDS011;4099;52.684;9.918;2023-02-08T07:51:52;77.47;;;32.87;;
8113;SDS011;4099;52.684;9.918;2023-02-08T07:57:06;81.13;;;35.97;;
8113;SDS011;4099;52.684;9.918;2023-02-08T08:02:14;85.03;;;34.40;;
8113;SDS011;4099;52.684;9.918;2023-02-08T08:07:28;87.10;;;35.03;;
8113;SDS011;4099;52.684;9.918;2023-02-08T08:12:36;78.77;;;33.67;;
8113;SDS011;4099;52.684;9.918;2023-02-08T08:17:42;76.20;;;33.13;;
8113;SDS011;4099;52.684;9.918;2023-02-08T08:22:58;85.13;;;32.13;;
8113;SDS011;4099;52.684;9.918;2023-02-08T08:28:08;78.73;;;33.33;;
8113;SDS011;4099;52.684;9.918;2023-02-08T08:33:22;74.23;;;32.67;;
8113;SDS011;4099;52.684;9.918;2023-02-08T08:38:33;69.13;;;30.07;;
8113;SDS011;4099;52.684;9.918;2023-02-08T08:43:51;73.73;;;31.77;;
8113;SDS011;4099;52.684;9.918;2023-02-08T08:49:00;69.73;;;30.80;;
8113;SDS011;4099;52.684;9.918;2023-02-08T08:54:04;72.13;;;29.47;;
8113;SDS011;4099;52.684;9.918;2023-02-08T08:59:13;72.73;;;31.00;;
8113;SDS011;4099;52.684;9.918;2023-02-08T09:04:28;76.03;;;32.80;;
8113;SDS011;4099;52.684;9.918;2023-02-08T09:09:40;68.23;;;30.83;;
8113;SDS011;4099;52.684;9.918;2023-02-08T09:15:08;65.73;;;29.63;;
8113;SDS011;4099;52.684;9.918;2023-02-08T09:20:17;61.00;;;28.83;;
8113;SDS011;4099;52.684;9.918;2023-02-08T09:25:28;56.23;;;26.67;;
8113;SDS011;4099;52.684;9.918;2023-02-08T09:30:35;57.97;;;26.53;;
8113;SDS011;4099;52.684;9.918;2023-02-08T09:35:43;53.17;;;26.87;;
8113;SDS011;4099;52.684;9.918;2023-02-08T09:40:51;50.67;;;25.00;;
8113;SDS011;4099;52.684;9.918;2023-02-08T09:46:10;51.47;;;25.10;;
8113;SDS011;4099;52.684;9.918;2023-02-08T09:51:28;54.93;;;24.03;;
8113;SDS011;4099;52.684;9.918;2023-02-08T09:56:49;46.17;;;23.17;;
8113;SDS011;4099;52.684;9.918;2023-02-08T10:02:16;46.17;;;22.43;;
8113;SDS011;4099;52.684;9.918;2023-02-08T10:07:45;48.87;;;24.13;;
8113;SDS011;4099;52.684;9.918;2023-02-08T10:13:14;47.27;;;23.07;;
8113;SDS011;4099;52.684;9.918;2023-02-08T10:18:40;43.43;;;21.70;;
8113;SDS011;4099;52.684;9.918;2023-02-08T10:24:15;42.97;;;21.50;;
8113;SDS011;4099;52.684;9.918;2023-02-08T10:29:45;41.83;;;20.13;;
8113;SDS011;4099;52.684;9.918;2023-02-08T10:35:10;41.07;;;19.80;;
8113;SDS011;4099;52.684;9.918;2023-02-08T10:40:28;37.93;;;19.50;;
8113;SDS011;4099;52.684;9.918;2023-02-08T10:45:48;39.60;;;20.00;;
8113;SDS011;4099;52.684;9.918;2023-02-08T10:51:00;37.83;;;19.10;;
8113;SDS011;4099;52.684;9.918;2023-02-08T10:56:08;33.50;;;17.40;;
8113;SDS011;4099;52.684;9.918;2023-02-08T11:06:57;32.33;;;17.57;;
8113;SDS011;4099;52.684;9.918;2023-02-08T11:12:26;29.37;;;16.03;;
8113;SDS011;4099;52.684;9.918;2023-02-08T11:17:33;29.17;;;14.60;;
8113;SDS011;4099;52.684;9.918;2023-02-08T11:22:46;31.17;;;15.50;;
8113;SDS011;4099;52.684;9.918;2023-02-08T11:28:19;25.40;;;13.67;;
8113;SDS011;4099;52.684;9.918;2023-02-08T11:33:34;25.03;;;13.13;;
8113;SDS011;4099;52.684;9.918;2023-02-08T11:38:42;24.27;;;13.37;;
8113;SDS011;4099;52.684;9.918;2023-02-08T11:44:30;28.20;;;16.10;;
8113;SDS011;4099;52.684;9.918;2023-02-08T11:55:23;28.90;;;15.63;;
8113;SDS011;4099;52.684;9.918;2023-02-08T12:00:58;24.73;;;13.93;;
8113;SDS011;4099;52.684;9.918;2023-02-08T12:06:23;23.53;;;12.93;;
8113;SDS011;4099;52.684;9.918;2023-02-08T12:11:44;18.37;;;11.87;;
8113;SDS011;4099;52.684;9.918;2023-02-08T12:16:59;20.53;;;11.87;;
8113;SDS011;4099;52.684;9.918;2023-02-08T12:22:30;25.97;;;14.63;;
8113;SDS011;4099;52.684;9.918;2023-02-08T12:27:42;23.87;;;14.67;;
8113;SDS011;4099;52.684;9.918;2023-02-08T12:33:06;22.57;;;13.00;;
8113;SDS011;4099;52.684;9.918;2023-02-08T12:39:05;20.53;;;11.77;;
8113;SDS011;4099;52.684;9.918;2023-02-08T12:44:38;22.13;;;13.10;;
8113;SDS011;4099;52.684;9.918;2023-02-08T12:49:58;23.30;;;12.80;;
8113;SDS011;4099;52.684;9.918;2023-02-08T12:55:20;16.37;;;9.57;;
8113;SDS011;4099;52.684;9.918;2023-02-08T13:00:38;18.10;;;11.47;;
8113;SDS011;4099;52.684;9.918;2023-02-08T13:06:01;18.00;;;10.57;;
8113;SDS011;4099;52.684;9.918;2023-02-08T13:12:01;18.07;;;11.00;;
8113;SDS011;4099;52.684;9.918;2023-02-08T13:16:58;17.20;;;10.20;;
8113;SDS011;4099;52.684;9.918;2023-02-08T13:22:28;17.83;;;10.43;;
8113;SDS011;4099;52.684;9.918;2023-02-08T13:27:45;17.97;;;10.80;;
8113;SDS011;4099;52.684;9.918;2023-02-08T13:33:05;18.27;;;10.87;;
8113;SDS011;4099;52.684;9.918;2023-02-08T13:38:39;18.13;;;11.27;;
8113;SDS011;4099;52.684;9.918;2023-02-08T13:44:15;16.03;;;10.37;;
8113;SDS011;4099;52.684;9.918;2023-02-08T13:49:41;17.23;;;10.87;;
8113;SDS011;4099;52.684;9.918;2023-02-08T14:01:04;20.73;;;12.50;;
8113;SDS011;4099;52.684;9.918;2023-02-08T14:06:29;15.23;;;9.73;;
8113;SDS011;4099;52.684;9.918;2023-02-08T14:11:46;15.23;;;9.70;;
8113;SDS011;4099;52.684;9.918;2023-02-08T14:17:10;16.20;;;10.33;;
8113;SDS011;4099;52.684;9.918;2023-02-08T14:22:40;18.83;;;11.57;;
8113;SDS011;4099;52.684;9.918;2023-02-08T14:34:05;20.60;;;12.07;;
8113;SDS011;4099;52.684;9.918;2023-02-08T14:39:32;19.77;;;13.17;;
8113;SDS011;4099;52.684;9.918;2023-02-08T14:45:16;22.93;;;14.03;;
8113;SDS011;4099;52.684;9.918;2023-02-08T14:50:49;21.87;;;12.97;;
8113;SDS011;4099;52.684;9.918;2023-02-08T14:56:13;20.57;;;13.50;;
8113;SDS011;4099;52.684;9.918;2023-02-08T15:01:39;20.97;;;13.57;;
8113;SDS011;4099;52.684;9.918;2023-02-08T15:12:40;21.93;;;13.47;;
8113;SDS011;4099;52.684;9.918;2023-02-08T15:18:24;24.27;;;14.83;;
8113;SDS011;4099;52.684;9.918;2023-02-08T15:29:28;26.93;;;16.40;;
8113;SDS011;4099;52.684;9.918;2023-02-08T15:34:51;28.03;;;17.47;;
8113;SDS011;4099;52.684;9.918;2023-02-08T15:40:27;28.23;;;17.60;;
8113;SDS011;4099;52.684;9.918;2023-02-08T15:45:39;27.77;;;16.63;;
8113;SDS011;4099;52.684;9.918;2023-02-08T15:51:06;27.27;;;17.10;;
8113;SDS011;4099;52.684;9.918;2023-02-08T15:56:24;28.20;;;16.80;;
8113;SDS011;4099;52.684;9.918;2023-02-08T16:02:02;29.93;;;18.00;;
8113;SDS011;4099;52.684;9.918;2023-02-08T16:07:30;26.73;;;16.87;;
8113;SDS011;4099;52.684;9.918;2023-02-08T16:12:47;29.70;;;17.60;;
8113;SDS011;4099;52.684;9.918;2023-02-08T16:17:55;26.53;;;17.10;;
8113;SDS011;4099;52.684;9.918;2023-02-08T16:23:23;28.30;;;17.73;;
8113;SDS011;4099;52.684;9.918;2023-02-08T16:28:54;26.30;;;16.27;;
8113;SDS011;4099;52.684;9.918;2023-02-08T16:34:36;24.53;;;14.77;;
8113;SDS011;4099;52.684;9.918;2023-02-08T16:39:55;20.47;;;13.00;;
8113;SDS011;4099;52.684;9.918;2023-02-08T16:45:17;22.27;;;13.23;;
8113;SDS011;4099;52.684;9.918;2023-02-08T16:50:28;25.90;;;14.90;;
8113;SDS011;4099;52.684;9.918;2023-02-08T16:55:42;28.83;;;16.73;;
8113;SDS011;4099;52.684;9.918;2023-02-08T17:00:49;34.50;;;20.17;;
8113;SDS011;4099;52.684;9.918;2023-02-08T17:05:52;32.40;;;19.40;;
8113;SDS011;4099;52.684;9.918;2023-02-08T17:16:31;42.43;;;23.67;;
8113;SDS011;4099;52.684;9.918;2023-02-08T17:21:42;65.77;;;28.50;;
8113;SDS011;4099;52.684;9.918;2023-02-08T17:26:48;82.37;;;34.27;;
8113;SDS011;4099;52.684;9.918;2023-02-08T17:31:53;65.07;;;29.17;;
8113;SDS011;4099;52.684;9.918;2023-02-08T17:36:58;48.97;;;24.80;;
8113;SDS011;4099;52.684;9.918;2023-02-08T17:42:12;39.00;;;21.70;;
8113;SDS011;4099;52.684;9.918;2023-02-08T17:47:17;31.70;;;18.53;;
8113;SDS011;4099;52.684;9.918;2023-02-08T17:52:32;34.07;;;19.30;;
8113;SDS011;4099;52.684;9.918;2023-02-08T17:57:44;35.33;;;18.00;;
8113;SDS011;4099;52.684;9.918;2023-02-08T18:02:53;33.83;;;19.07;;
8113;SDS011;4099;52.684;9.918;2023-02-08T18:08:01;33.00;;;19.23;;
8113;SDS011;4099;52.684;9.918;2023-02-08T18:13:09;36.73;;;20.20;;
8113;SDS011;4099;52.684;9.918;2023-02-08T18:18:16;39.00;;;21.90;;
8113;SDS011;4099;52.684;9.918;2023-02-08T18:23:29;39.17;;;21.73;;
8113;SDS011;4099;52.684;9.918;2023-02-08T18:28:39;35.50;;;20.63;;
8113;SDS011;4099;52.684;9.918;2023-02-08T18:33:49;42.20;;;23.47;;
8113;SDS011;4099;52.684;9.918;2023-02-08T18:39:00;40.97;;;23.83;;
8113;SDS011;4099;52.684;9.918;2023-02-08T18:44:16;42.17;;;23.10;;
8113;SDS011;4099;52.684;9.918;2023-02-08T18:49:19;42.50;;;24.47;;
8113;SDS011;4099;52.684;9.918;2023-02-08T18:54:23;44.33;;;23.33;;
8113;SDS011;4099;52.684;9.918;2023-02-08T18:59:43;44.87;;;24.13;;
8113;SDS011;4099;52.684;9.918;2023-02-08T19:04:56;47.17;;;25.83;;
8113;SDS011;4099;52.684;9.918;2023-02-08T19:10:12;48.77;;;26.43;;
8113;SDS011;4099;52.684;9.918;2023-02-08T19:15:20;49.93;;;27.33;;
8113;SDS011;4099;52.684;9.918;2023-02-08T19:20:32;50.90;;;27.83;;
8113;SDS011;4099;52.684;9.918;2023-02-08T19:25:39;55.40;;;28.97;;
8113;SDS011;4099;52.684;9.918;2023-02-08T19:31:08;52.17;;;28.60;;
8113;SDS011;4099;52.684;9.918;2023-02-08T19:36:16;51.37;;;28.63;;
8113;SDS011;4099;52.684;9.918;2023-02-08T19:41:24;48.47;;;28.00;;
8113;SDS011;4099;52.684;9.918;2023-02-08T19:46:37;53.03;;;28.80;;
8113;SDS011;4099;52.684;9.918;2023-02-08T19:51:45;55.73;;;28.70;;
8113;SDS011;4099;52.684;9.918;2023-02-08T19:56:49;56.10;;;29.00;;
8113;SDS011;4099;52.684;9.918;2023-02-08T20:02:02;55.70;;;27.93;;
8113;SDS011;4099;52.684;9.918;2023-02-08T20:07:07;60.10;;;32.80;;
8113;SDS011;4099;52.684;9.918;2023-02-08T20:12:14;65.73;;;34.70;;
8113;SDS011;4099;52.684;9.918;2023-02-08T20:17:22;62.37;;;31.83;;
8113;SDS011;4099;52.684;9.918;2023-02-08T20:22:29;61.80;;;31.97;;
8113;SDS011;4099;52.684;9.918;2023-02-08T20:27:40;59.43;;;31.13;;
8113;SDS011;4099;52.684;9.918;2023-02-08T20:32:47;62.63;;;32.30;;
8113;SDS011;4099;52.684;9.918;2023-02-08T20:37:54;65.70;;;33.67;;
8113;SDS011;4099;52.684;9.918;2023-02-08T20:42:59;57.63;;;32.47;;
8113;SDS011;4099;52.684;9.918;2023-02-08T20:48:08;63.50;;;32.23;;
8113;SDS011;4099;52.684;9.918;2023-02-08T20:53:15;65.03;;;33.70;;
8113;SDS011;4099;52.684;9.918;2023-02-08T20:58:18;63.57;;;34.47;;
8113;SDS011;4099;52.684;9.918;2023-02-08T21:03:24;72.40;;;34.47;;
8113;SDS011;4099;52.684;9.918;2023-02-08T21:08:31;63.23;;;32.80;;
8113;SDS011;4099;52.684;9.918;2023-02-08T21:13:36;63.43;;;33.37;;
8113;SDS011;4099;52.684;9.918;2023-02-08T21:18:42;60.30;;;33.30;;
8113;SDS011;4099;52.684;9.918;2023-02-08T21:23:46;62.77;;;32.63;;
8113;SDS011;4099;52.684;9.918;2023-02-08T21:28:50;62.43;;;32.97;;
8113;SDS011;4099;52.684;9.918;2023-02-08T21:33:55;63.83;;;34.40;;
8113;SDS011;4099;52.684;9.918;2023-02-08T21:38:59;73.10;;;35.70;;
8113;SDS011;4099;52.684;9.918;2023-02-08T21:44:03;69.20;;;35.63;;
8113;SDS011;4099;52.684;9.918;2023-02-08T21:49:12;61.43;;;33.50;;
8113;SDS011;4099;52.684;9.918;2023-02-08T21:54:33;70.10;;;36.53;;
8113;SDS011;4099;52.684;9.918;2023-02-08T21:59:46;74.20;;;37.30;;
8113;SDS011;4099;52.684;9.918;2023-02-08T22:05:00;73.57;;;38.07;;
8113;SDS011;4099;52.684;9.918;2023-02-08T22:10:05;79.33;;;40.20;;
8113;SDS011;4099;52.684;9.918;2023-02-08T22:15:16;67.17;;;35.50;;
8113;SDS011;4099;52.684;9.918;2023-02-08T22:20:26;67.80;;;33.53;;
8113;SDS011;4099;52.684;9.918;2023-02-08T22:25:33;69.27;;;33.73;;
8113;SDS011;4099;52.684;9.918;2023-02-08T22:30:39;70.43;;;35.23;;
8113;SDS011;4099;52.684;9.918;2023-02-08T22:35:46;73.83;;;35.10;;
8113;SDS011;4099;52.684;9.918;2023-02-08T22:40:49;66.07;;;34.27;;
8113;SDS011;4099;52.684;9.918;2023-02-08T22:45:59;73.17;;;37.53;;
8113;SDS011;4099;52.684;9.918;2023-02-08T22:51:12;68.60;;;34.90;;
8113;SDS011;4099;52.684;9.918;2023-02-08T22:56:21;68.63;;;33.80;;
8113;SDS011;4099;52.684;9.918;2023-02-08T23:01:25;66.90;;;34.63;;
8113;SDS011;4099;52.684;9.918;2023-02-08T23:06:36;63.20;;;33.33;;
8113;SDS011;4099;52.684;9.918;2023-02-08T23:11:40;63.03;;;33.47;;
8113;SDS011;4099;52.684;9.918;2023-02-08T23:16:46;62.77;;;32.93;;
8113;SDS011;4099;52.684;9.918;2023-02-08T23:21:55;59.67;;;31.13;;
8113;SDS011;4099;52.684;9.918;2023-02-08T23:27:02;60.00;;;31.63;;
8113;SDS011;4099;52.684;9.918;2023-02-08T23:32:07;63.07;;;31.40;;
8113;SDS011;4099;52.684;9.918;2023-02-08T23:37:13;66.97;;;31.60;;
8113;SDS011;4099;52.684;9.918;2023-02-08T23:42:30;60.23;;;31.80;;
8113;SDS011;4099;52.684;9.918;2023-02-08T23:47:35;54.43;;;29.80;;
8113;SDS011;4099;52.684;9.918;2023-02-08T23:52:42;61.73;;;31.63;;
8113;SDS011;4099;52.684;9.918;2023-02-08T23:57:54;62.13;;;32.73;;
